sensor_id;sensor_type;location;lat;lon;timestamp;P1;durP1;ratioP1;P2;durP2;ratioP2
77111;SDS011;66064;50.226;14.344;2022-12-29T00:02:08;11.75;;;10.70;;
77111;SDS011;66064;50.226;14.344;2022-12-29T00:04:34;14.50;;;11.45;;
77111;SDS011;66064;50.226;14.344;2022-12-29T00:07:00;12.02;;;11.05;;
77111;SDS011;66064;50.226;14.344;2022-12-29T00:09:26;13.05;;;11.85;;
77111;SDS011;66064;50.226;14.344;2022-12-29T00:11:52;15.23;;;13.93;;
77111;SDS011;66064;50.226;14.344;2022-12-29T00:14:18;15.13;;;11.15;;
77111;SDS011;66064;50.226;14.344;2022-12-29T00:17:02;11.95;;;10.75;;
77111;SDS011;66064;50.226;14.344;2022-12-29T00:19:28;13.07;;;10.70;;
77111;SDS011;66064;50.226;14.344;2022-12-29T00:22:13;10.95;;;10.00;;
77111;SDS011;66064;50.226;14.344;2022-12-29T00:24:58;12.73;;;11.45;;
77111;SDS011;66064;50.226;14.344;2022-12-29T00:27:31;12.13;;;10.98;;
77111;SDS011;66064;50.226;14.344;2022-12-29T00:30:22;11.00;;;10.02;;
77111;SDS011;66064;50.226;14.344;2022-12-29T00:33:17;14.20;;;12.35;;
77111;SDS011;66064;50.226;14.344;2022-12-29T00:36:04;11.65;;;10.45;;
77111;SDS011;66064;50.226;14.344;2022-12-29T00:38:37;11.63;;;10.70;;
77111;SDS011;66064;50.226;14.344;2022-12-29T00:41:24;12.10;;;10.90;;
77111;SDS011;66064;50.226;14.344;2022-12-29T00:44:09;18.30;;;17.20;;
77111;SDS011;66064;50.226;14.344;2022-12-29T00:46:39;10.73;;;9.93;;
77111;SDS011;66064;50.226;14.344;2022-12-29T00:49:08;13.70;;;12.50;;
77111;SDS011;66064;50.226;14.344;2022-12-29T00:51:54;10.93;;;9.95;;
77111;SDS011;66064;50.226;14.344;2022-12-29T00:54:22;12.63;;;11.43;;
77111;SDS011;66064;50.226;14.344;2022-12-29T00:56:48;11.70;;;10.60;;
77111;SDS011;66064;50.226;14.344;2022-12-29T00:59:15;12.07;;;10.93;;
77111;SDS011;66064;50.226;14.344;2022-12-29T01:01:41;12.07;;;10.93;;
77111;SDS011;66064;50.226;14.344;2022-12-29T01:04:08;15.63;;;13.25;;
77111;SDS011;66064;50.226;14.344;2022-12-29T01:06:35;15.90;;;13.40;;
77111;SDS011;66064;50.226;14.344;2022-12-29T01:09:03;18.73;;;13.75;;
77111;SDS011;66064;50.226;14.344;2022-12-29T01:11:47;21.48;;;14.43;;
77111;SDS011;66064;50.226;14.344;2022-12-29T01:14:14;24.95;;;13.95;;
77111;SDS011;66064;50.226;14.344;2022-12-29T01:16:40;13.25;;;10.60;;
77111;SDS011;66064;50.226;14.344;2022-12-29T01:19:06;11.02;;;10.20;;
77111;SDS011;66064;50.226;14.344;2022-12-29T01:21:32;13.35;;;12.05;;
77111;SDS011;66064;50.226;14.344;2022-12-29T01:23:59;12.65;;;11.32;;
77111;SDS011;66064;50.226;14.344;2022-12-29T01:26:24;9.98;;;9.10;;
77111;SDS011;66064;50.226;14.344;2022-12-29T01:28:51;10.75;;;9.75;;
77111;SDS011;66064;50.226;14.344;2022-12-29T01:31:16;11.82;;;10.80;;
77111;SDS011;66064;50.226;14.344;2022-12-29T01:33:43;12.98;;;11.82;;
77111;SDS011;66064;50.226;14.344;2022-12-29T01:36:10;12.38;;;11.25;;
77111;SDS011;66064;50.226;14.344;2022-12-29T01:38:38;11.80;;;10.52;;
77111;SDS011;66064;50.226;14.344;2022-12-29T01:41:04;11.80;;;10.77;;
77111;SDS011;66064;50.226;14.344;2022-12-29T01:46:28;13.00;;;11.98;;
77111;SDS011;66064;50.226;14.344;2022-12-29T01:51:57;12.25;;;10.85;;
77111;SDS011;66064;50.226;14.344;2022-12-29T01:54:30;12.38;;;11.13;;
77111;SDS011;66064;50.226;14.344;2022-12-29T01:57:02;12.88;;;11.77;;
77111;SDS011;66064;50.226;14.344;2022-12-29T01:59:34;12.30;;;9.60;;
77111;SDS011;66064;50.226;14.344;2022-12-29T02:02:05;12.13;;;11.13;;
77111;SDS011;66064;50.226;14.344;2022-12-29T02:04:33;16.05;;;14.75;;
77111;SDS011;66064;50.226;14.344;2022-12-29T02:07:04;13.48;;;12.15;;
77111;SDS011;66064;50.226;14.344;2022-12-29T02:09:34;9.55;;;8.55;;
77111;SDS011;66064;50.226;14.344;2022-12-29T02:12:00;10.15;;;9.30;;
77111;SDS011;66064;50.226;14.344;2022-12-29T02:14:26;13.40;;;11.10;;
77111;SDS011;66064;50.226;14.344;2022-12-29T02:16:56;16.30;;;11.48;;
77111;SDS011;66064;50.226;14.344;2022-12-29T02:27:36;16.95;;;11.50;;
77111;SDS011;66064;50.226;14.344;2022-12-29T02:35:41;12.05;;;10.43;;
77111;SDS011;66064;50.226;14.344;2022-12-29T02:38:18;11.13;;;10.05;;
77111;SDS011;66064;50.226;14.344;2022-12-29T02:43:46;10.80;;;9.80;;
77111;SDS011;66064;50.226;14.344;2022-12-29T02:46:21;12.57;;;10.85;;
77111;SDS011;66064;50.226;14.344;2022-12-29T02:48:56;13.32;;;11.63;;
77111;SDS011;66064;50.226;14.344;2022-12-29T02:54:31;9.98;;;9.05;;
77111;SDS011;66064;50.226;14.344;2022-12-29T03:00:30;12.63;;;9.05;;
77111;SDS011;66064;50.226;14.344;2022-12-29T03:08:22;12.02;;;10.48;;
77111;SDS011;66064;50.226;14.344;2022-12-29T03:11:05;11.63;;;10.52;;
77111;SDS011;66064;50.226;14.344;2022-12-29T03:13:56;13.02;;;10.23;;
77111;SDS011;66064;50.226;14.344;2022-12-29T03:16:47;10.38;;;9.25;;
77111;SDS011;66064;50.226;14.344;2022-12-29T03:19:21;12.85;;;10.60;;
77111;SDS011;66064;50.226;14.344;2022-12-29T03:21:56;13.68;;;12.45;;
77111;SDS011;66064;50.226;14.344;2022-12-29T03:24:49;12.57;;;11.57;;
77111;SDS011;66064;50.226;14.344;2022-12-29T03:27:20;10.90;;;10.00;;
77111;SDS011;66064;50.226;14.344;2022-12-29T03:29:51;12.15;;;11.00;;
77111;SDS011;66064;50.226;14.344;2022-12-29T03:32:23;11.45;;;10.35;;
77111;SDS011;66064;50.226;14.344;2022-12-29T03:34:53;11.32;;;10.50;;
77111;SDS011;66064;50.226;14.344;2022-12-29T03:37:22;11.00;;;9.90;;
77111;SDS011;66064;50.226;14.344;2022-12-29T03:39:51;9.60;;;8.70;;
77111;SDS011;66064;50.226;14.344;2022-12-29T03:42:19;9.65;;;8.70;;
77111;SDS011;66064;50.226;14.344;2022-12-29T03:44:49;12.75;;;11.65;;
77111;SDS011;66064;50.226;14.344;2022-12-29T03:47:21;12.30;;;11.23;;
77111;SDS011;66064;50.226;14.344;2022-12-29T03:49:48;12.95;;;10.70;;
77111;SDS011;66064;50.226;14.344;2022-12-29T03:52:14;11.95;;;10.75;;
77111;SDS011;66064;50.226;14.344;2022-12-29T03:54:41;11.32;;;10.23;;
77111;SDS011;66064;50.226;14.344;2022-12-29T03:57:07;10.85;;;9.98;;
77111;SDS011;66064;50.226;14.344;2022-12-29T03:59:34;11.52;;;10.40;;
77111;SDS011;66064;50.226;14.344;2022-12-29T04:01:59;31.38;;;16.92;;
77111;SDS011;66064;50.226;14.344;2022-12-29T04:04:25;12.60;;;10.98;;
77111;SDS011;66064;50.226;14.344;2022-12-29T04:06:51;13.73;;;12.52;;
77111;SDS011;66064;50.226;14.344;2022-12-29T04:09:17;13.52;;;12.15;;
77111;SDS011;66064;50.226;14.344;2022-12-29T04:11:43;18.30;;;13.13;;
77111;SDS011;66064;50.226;14.344;2022-12-29T04:14:09;15.70;;;13.80;;
77111;SDS011;66064;50.226;14.344;2022-12-29T04:16:35;16.55;;;14.57;;
77111;SDS011;66064;50.226;14.344;2022-12-29T04:19:01;18.73;;;14.70;;
77111;SDS011;66064;50.226;14.344;2022-12-29T04:21:27;17.40;;;14.85;;
77111;SDS011;66064;50.226;14.344;2022-12-29T04:23:54;19.58;;;17.35;;
77111;SDS011;66064;50.226;14.344;2022-12-29T04:26:19;18.35;;;13.35;;
77111;SDS011;66064;50.226;14.344;2022-12-29T04:28:45;15.48;;;14.02;;
77111;SDS011;66064;50.226;14.344;2022-12-29T04:31:11;17.35;;;14.57;;
77111;SDS011;66064;50.226;14.344;2022-12-29T04:33:37;19.30;;;14.40;;
77111;SDS011;66064;50.226;14.344;2022-12-29T04:36:03;19.10;;;14.65;;
77111;SDS011;66064;50.226;14.344;2022-12-29T04:38:29;19.40;;;17.52;;
77111;SDS011;66064;50.226;14.344;2022-12-29T04:40:57;15.57;;;13.30;;
77111;SDS011;66064;50.226;14.344;2022-12-29T04:43:24;16.02;;;13.00;;
77111;SDS011;66064;50.226;14.344;2022-12-29T04:45:50;12.70;;;11.60;;
77111;SDS011;66064;50.226;14.344;2022-12-29T04:48:16;9.10;;;8.35;;
77111;SDS011;66064;50.226;14.344;2022-12-29T04:50:42;12.70;;;10.63;;
77111;SDS011;66064;50.226;14.344;2022-12-29T04:53:09;10.68;;;9.55;;
77111;SDS011;66064;50.226;14.344;2022-12-29T04:55:34;9.90;;;9.07;;
77111;SDS011;66064;50.226;14.344;2022-12-29T04:58:01;11.00;;;10.05;;
77111;SDS011;66064;50.226;14.344;2022-12-29T05:00:26;15.75;;;14.77;;
77111;SDS011;66064;50.226;14.344;2022-12-29T05:02:53;16.42;;;15.40;;
77111;SDS011;66064;50.226;14.344;2022-12-29T05:05:18;11.63;;;10.48;;
77111;SDS011;66064;50.226;14.344;2022-12-29T05:07:44;12.82;;;11.52;;
77111;SDS011;66064;50.226;14.344;2022-12-29T05:10:10;10.70;;;9.70;;
77111;SDS011;66064;50.226;14.344;2022-12-29T05:12:37;12.55;;;11.43;;
77111;SDS011;66064;50.226;14.344;2022-12-29T05:15:04;12.43;;;11.50;;
77111;SDS011;66064;50.226;14.344;2022-12-29T05:17:31;9.15;;;8.35;;
77111;SDS011;66064;50.226;14.344;2022-12-29T05:19:57;8.38;;;7.55;;
77111;SDS011;66064;50.226;14.344;2022-12-29T05:22:24;10.48;;;9.50;;
77111;SDS011;66064;50.226;14.344;2022-12-29T05:24:50;8.07;;;7.47;;
77111;SDS011;66064;50.226;14.344;2022-12-29T05:27:16;9.23;;;8.38;;
77111;SDS011;66064;50.226;14.344;2022-12-29T05:29:42;10.00;;;6.93;;
77111;SDS011;66064;50.226;14.344;2022-12-29T05:32:08;8.98;;;8.18;;
77111;SDS011;66064;50.226;14.344;2022-12-29T05:34:33;7.72;;;7.00;;
77111;SDS011;66064;50.226;14.344;2022-12-29T05:36:59;10.05;;;9.43;;
77111;SDS011;66064;50.226;14.344;2022-12-29T05:39:26;9.73;;;9.02;;
77111;SDS011;66064;50.226;14.344;2022-12-29T05:41:52;8.75;;;7.88;;
77111;SDS011;66064;50.226;14.344;2022-12-29T05:44:18;8.32;;;7.53;;
77111;SDS011;66064;50.226;14.344;2022-12-29T05:46:44;8.13;;;7.43;;
77111;SDS011;66064;50.226;14.344;2022-12-29T05:49:10;10.32;;;9.32;;
77111;SDS011;66064;50.226;14.344;2022-12-29T05:51:36;8.63;;;7.93;;
77111;SDS011;66064;50.226;14.344;2022-12-29T05:54:02;8.38;;;7.75;;
77111;SDS011;66064;50.226;14.344;2022-12-29T05:56:28;8.02;;;7.32;;
77111;SDS011;66064;50.226;14.344;2022-12-29T05:58:53;8.65;;;7.93;;
77111;SDS011;66064;50.226;14.344;2022-12-29T06:01:19;7.50;;;6.85;;
77111;SDS011;66064;50.226;14.344;2022-12-29T06:03:45;9.13;;;8.32;;
77111;SDS011;66064;50.226;14.344;2022-12-29T06:06:11;9.48;;;8.68;;
77111;SDS011;66064;50.226;14.344;2022-12-29T06:08:37;8.95;;;8.18;;
77111;SDS011;66064;50.226;14.344;2022-12-29T06:11:03;10.80;;;8.82;;
77111;SDS011;66064;50.226;14.344;2022-12-29T06:13:29;12.82;;;8.45;;
77111;SDS011;66064;50.226;14.344;2022-12-29T06:15:55;7.13;;;6.50;;
77111;SDS011;66064;50.226;14.344;2022-12-29T06:18:21;8.02;;;6.93;;
77111;SDS011;66064;50.226;14.344;2022-12-29T06:20:47;8.90;;;8.02;;
77111;SDS011;66064;50.226;14.344;2022-12-29T06:23:13;7.25;;;6.65;;
77111;SDS011;66064;50.226;14.344;2022-12-29T06:25:39;7.00;;;6.40;;
77111;SDS011;66064;50.226;14.344;2022-12-29T06:28:04;7.15;;;6.55;;
77111;SDS011;66064;50.226;14.344;2022-12-29T06:30:31;10.73;;;9.57;;
77111;SDS011;66064;50.226;14.344;2022-12-29T06:32:58;9.82;;;8.90;;
77111;SDS011;66064;50.226;14.344;2022-12-29T06:35:24;47.70;;;37.00;;
77111;SDS011;66064;50.226;14.344;2022-12-29T06:37:50;11.13;;;9.82;;
77111;SDS011;66064;50.226;14.344;2022-12-29T06:40:16;9.13;;;8.32;;
77111;SDS011;66064;50.226;14.344;2022-12-29T06:42:42;11.25;;;10.43;;
77111;SDS011;66064;50.226;14.344;2022-12-29T06:45:08;11.00;;;10.10;;
77111;SDS011;66064;50.226;14.344;2022-12-29T06:47:34;10.20;;;9.40;;
77111;SDS011;66064;50.226;14.344;2022-12-29T06:50:01;8.70;;;8.02;;
77111;SDS011;66064;50.226;14.344;2022-12-29T06:52:27;9.55;;;8.88;;
77111;SDS011;66064;50.226;14.344;2022-12-29T06:54:54;7.70;;;7.05;;
77111;SDS011;66064;50.226;14.344;2022-12-29T06:57:20;12.32;;;11.43;;
77111;SDS011;66064;50.226;14.344;2022-12-29T06:59:47;9.63;;;8.82;;
77111;SDS011;66064;50.226;14.344;2022-12-29T07:02:13;7.95;;;7.25;;
77111;SDS011;66064;50.226;14.344;2022-12-29T07:04:45;10.70;;;9.80;;
77111;SDS011;66064;50.226;14.344;2022-12-29T07:07:10;10.32;;;8.27;;
77111;SDS011;66064;50.226;14.344;2022-12-29T07:09:36;10.27;;;9.23;;
77111;SDS011;66064;50.226;14.344;2022-12-29T07:12:02;10.38;;;9.35;;
77111;SDS011;66064;50.226;14.344;2022-12-29T07:14:28;9.15;;;8.35;;
77111;SDS011;66064;50.226;14.344;2022-12-29T07:16:55;17.90;;;11.73;;
77111;SDS011;66064;50.226;14.344;2022-12-29T07:19:21;13.75;;;10.73;;
77111;SDS011;66064;50.226;14.344;2022-12-29T07:21:46;17.00;;;13.45;;
77111;SDS011;66064;50.226;14.344;2022-12-29T07:24:12;19.15;;;13.43;;
77111;SDS011;66064;50.226;14.344;2022-12-29T07:26:38;20.60;;;12.25;;
77111;SDS011;66064;50.226;14.344;2022-12-29T07:29:04;42.88;;;21.63;;
77111;SDS011;66064;50.226;14.344;2022-12-29T07:31:30;44.50;;;29.30;;
77111;SDS011;66064;50.226;14.344;2022-12-29T07:33:56;23.60;;;14.63;;
77111;SDS011;66064;50.226;14.344;2022-12-29T07:36:22;27.50;;;18.27;;
77111;SDS011;66064;50.226;14.344;2022-12-29T07:38:48;29.83;;;22.25;;
77111;SDS011;66064;50.226;14.344;2022-12-29T07:41:14;24.55;;;16.30;;
77111;SDS011;66064;50.226;14.344;2022-12-29T07:43:40;22.83;;;14.23;;
77111;SDS011;66064;50.226;14.344;2022-12-29T07:46:05;35.03;;;19.63;;
77111;SDS011;66064;50.226;14.344;2022-12-29T07:48:31;59.22;;;32.40;;
77111;SDS011;66064;50.226;14.344;2022-12-29T07:51:01;36.63;;;20.02;;
77111;SDS011;66064;50.226;14.344;2022-12-29T07:53:27;36.97;;;19.10;;
77111;SDS011;66064;50.226;14.344;2022-12-29T07:55:52;39.95;;;23.10;;
77111;SDS011;66064;50.226;14.344;2022-12-29T07:58:18;13.18;;;11.45;;
77111;SDS011;66064;50.226;14.344;2022-12-29T08:00:44;12.07;;;11.00;;
77111;SDS011;66064;50.226;14.344;2022-12-29T08:03:11;15.88;;;12.50;;
77111;SDS011;66064;50.226;14.344;2022-12-29T08:05:36;22.92;;;15.68;;
77111;SDS011;66064;50.226;14.344;2022-12-29T08:08:02;23.17;;;15.43;;
77111;SDS011;66064;50.226;14.344;2022-12-29T08:10:28;28.45;;;17.58;;
77111;SDS011;66064;50.226;14.344;2022-12-29T08:12:54;28.52;;;18.25;;
77111;SDS011;66064;50.226;14.344;2022-12-29T08:15:20;21.25;;;13.27;;
77111;SDS011;66064;50.226;14.344;2022-12-29T08:17:46;22.42;;;15.43;;
77111;SDS011;66064;50.226;14.344;2022-12-29T08:20:12;14.63;;;12.80;;
77111;SDS011;66064;50.226;14.344;2022-12-29T08:22:38;11.98;;;10.88;;
77111;SDS011;66064;50.226;14.344;2022-12-29T08:25:04;12.82;;;11.52;;
77111;SDS011;66064;50.226;14.344;2022-12-29T08:27:30;11.85;;;10.65;;
77111;SDS011;66064;50.226;14.344;2022-12-29T08:29:56;29.27;;;22.30;;
77111;SDS011;66064;50.226;14.344;2022-12-29T08:32:22;47.42;;;30.17;;
77111;SDS011;66064;50.226;14.344;2022-12-29T08:34:47;44.40;;;27.38;;
77111;SDS011;66064;50.226;14.344;2022-12-29T08:37:13;43.67;;;26.42;;
77111;SDS011;66064;50.226;14.344;2022-12-29T08:39:39;17.23;;;15.20;;
77111;SDS011;66064;50.226;14.344;2022-12-29T08:42:05;13.13;;;10.20;;
77111;SDS011;66064;50.226;14.344;2022-12-29T08:44:31;12.68;;;11.20;;
77111;SDS011;66064;50.226;14.344;2022-12-29T08:46:57;14.57;;;12.70;;
77111;SDS011;66064;50.226;14.344;2022-12-29T08:49:23;12.05;;;9.85;;
77111;SDS011;66064;50.226;14.344;2022-12-29T08:51:49;12.82;;;11.32;;
77111;SDS011;66064;50.226;14.344;2022-12-29T08:54:15;11.90;;;8.05;;
77111;SDS011;66064;50.226;14.344;2022-12-29T08:56:41;10.35;;;8.93;;
77111;SDS011;66064;50.226;14.344;2022-12-29T08:59:07;9.77;;;8.02;;
77111;SDS011;66064;50.226;14.344;2022-12-29T09:01:33;9.07;;;8.23;;
77111;SDS011;66064;50.226;14.344;2022-12-29T09:04:01;12.25;;;9.93;;
77111;SDS011;66064;50.226;14.344;2022-12-29T09:06:27;12.68;;;10.15;;
77111;SDS011;66064;50.226;14.344;2022-12-29T09:08:54;12.35;;;9.75;;
77111;SDS011;66064;50.226;14.344;2022-12-29T09:11:21;12.23;;;10.35;;
77111;SDS011;66064;50.226;14.344;2022-12-29T09:13:49;8.48;;;7.68;;
77111;SDS011;66064;50.226;14.344;2022-12-29T09:16:15;12.60;;;9.75;;
77111;SDS011;66064;50.226;14.344;2022-12-29T09:18:42;10.88;;;9.38;;
77111;SDS011;66064;50.226;14.344;2022-12-29T09:21:10;18.23;;;10.80;;
77111;SDS011;66064;50.226;14.344;2022-12-29T09:23:37;16.90;;;12.07;;
77111;SDS011;66064;50.226;14.344;2022-12-29T09:26:03;11.68;;;9.05;;
77111;SDS011;66064;50.226;14.344;2022-12-29T09:28:30;13.07;;;10.98;;
77111;SDS011;66064;50.226;14.344;2022-12-29T09:30:57;19.05;;;11.48;;
77111;SDS011;66064;50.226;14.344;2022-12-29T09:33:23;15.15;;;9.88;;
77111;SDS011;66064;50.226;14.344;2022-12-29T09:35:50;9.20;;;8.25;;
77111;SDS011;66064;50.226;14.344;2022-12-29T09:38:17;16.60;;;10.88;;
77111;SDS011;66064;50.226;14.344;2022-12-29T09:40:49;7.47;;;6.85;;
77111;SDS011;66064;50.226;14.344;2022-12-29T09:48:47;10.60;;;8.57;;
77111;SDS011;66064;50.226;14.344;2022-12-29T09:51:20;13.43;;;9.65;;
77111;SDS011;66064;50.226;14.344;2022-12-29T09:53:51;12.40;;;8.63;;
77111;SDS011;66064;50.226;14.344;2022-12-29T09:56:25;9.65;;;7.90;;
77111;SDS011;66064;50.226;14.344;2022-12-29T10:04:13;7.95;;;6.65;;
77111;SDS011;66064;50.226;14.344;2022-12-29T10:06:45;11.98;;;10.18;;
77111;SDS011;66064;50.226;14.344;2022-12-29T10:12:26;12.07;;;9.88;;
77111;SDS011;66064;50.226;14.344;2022-12-29T10:15:17;13.18;;;8.52;;
77111;SDS011;66064;50.226;14.344;2022-12-29T10:23:26;14.75;;;10.52;;
77111;SDS011;66064;50.226;14.344;2022-12-29T10:25:59;14.88;;;9.80;;
77111;SDS011;66064;50.226;14.344;2022-12-29T10:28:38;23.42;;;13.43;;
77111;SDS011;66064;50.226;14.344;2022-12-29T10:31:15;9.68;;;6.85;;
77111;SDS011;66064;50.226;14.344;2022-12-29T10:33:48;7.30;;;5.70;;
77111;SDS011;66064;50.226;14.344;2022-12-29T10:36:33;29.08;;;15.35;;
77111;SDS011;66064;50.226;14.344;2022-12-29T10:41:46;51.88;;;25.95;;
77111;SDS011;66064;50.226;14.344;2022-12-29T10:44:16;14.63;;;9.07;;
77111;SDS011;66064;50.226;14.344;2022-12-29T10:46:44;34.65;;;18.25;;
77111;SDS011;66064;50.226;14.344;2022-12-29T10:49:24;60.08;;;28.20;;
77111;SDS011;66064;50.226;14.344;2022-12-29T10:51:52;52.05;;;29.13;;
77111;SDS011;66064;50.226;14.344;2022-12-29T10:54:26;20.25;;;13.55;;
77111;SDS011;66064;50.226;14.344;2022-12-29T10:59:35;29.63;;;16.05;;
77111;SDS011;66064;50.226;14.344;2022-12-29T11:07:46;20.00;;;12.35;;
77111;SDS011;66064;50.226;14.344;2022-12-29T11:10:21;33.30;;;19.17;;
77111;SDS011;66064;50.226;14.344;2022-12-29T11:15:26;24.67;;;17.08;;
77111;SDS011;66064;50.226;14.344;2022-12-29T11:17:53;17.80;;;12.95;;
77111;SDS011;66064;50.226;14.344;2022-12-29T11:23:03;21.23;;;15.20;;
77111;SDS011;66064;50.226;14.344;2022-12-29T11:26:06;12.00;;;7.35;;
77111;SDS011;66064;50.226;14.344;2022-12-29T11:28:38;10.98;;;6.70;;
77111;SDS011;66064;50.226;14.344;2022-12-29T11:31:06;8.32;;;7.47;;
77111;SDS011;66064;50.226;14.344;2022-12-29T11:33:33;20.63;;;13.80;;
77111;SDS011;66064;50.226;14.344;2022-12-29T11:36:02;24.38;;;14.30;;
77111;SDS011;66064;50.226;14.344;2022-12-29T11:38:35;11.10;;;9.10;;
77111;SDS011;66064;50.226;14.344;2022-12-29T11:41:04;24.63;;;16.75;;
77111;SDS011;66064;50.226;14.344;2022-12-29T11:43:38;5.90;;;4.60;;
77111;SDS011;66064;50.226;14.344;2022-12-29T11:46:16;15.02;;;13.43;;
77111;SDS011;66064;50.226;14.344;2022-12-29T11:48:45;7.78;;;5.32;;
77111;SDS011;66064;50.226;14.344;2022-12-29T11:51:19;7.97;;;7.28;;
77111;SDS011;66064;50.226;14.344;2022-12-29T11:54:01;5.55;;;4.63;;
77111;SDS011;66064;50.226;14.344;2022-12-29T11:56:34;11.90;;;10.73;;
77111;SDS011;66064;50.226;14.344;2022-12-29T12:01:57;11.52;;;9.55;;
77111;SDS011;66064;50.226;14.344;2022-12-29T12:04:30;5.53;;;5.00;;
77111;SDS011;66064;50.226;14.344;2022-12-29T12:07:12;5.35;;;4.30;;
77111;SDS011;66064;50.226;14.344;2022-12-29T12:09:57;8.23;;;7.63;;
77111;SDS011;66064;50.226;14.344;2022-12-29T12:12:44;12.18;;;9.88;;
77111;SDS011;66064;50.226;14.344;2022-12-29T12:15:39;12.05;;;9.02;;
77111;SDS011;66064;50.226;14.344;2022-12-29T12:18:11;15.77;;;10.27;;
77111;SDS011;66064;50.226;14.344;2022-12-29T12:20:39;15.23;;;11.25;;
77111;SDS011;66064;50.226;14.344;2022-12-29T12:25:59;6.68;;;5.97;;
77111;SDS011;66064;50.226;14.344;2022-12-29T12:28:33;7.72;;;6.40;;
77111;SDS011;66064;50.226;14.344;2022-12-29T12:31:06;5.47;;;4.95;;
77111;SDS011;66064;50.226;14.344;2022-12-29T12:33:54;8.70;;;7.78;;
77111;SDS011;66064;50.226;14.344;2022-12-29T12:47:44;7.28;;;6.72;;
77111;SDS011;66064;50.226;14.344;2022-12-29T12:53:15;6.85;;;6.15;;
77111;SDS011;66064;50.226;14.344;2022-12-29T13:01:11;6.72;;;5.28;;
77111;SDS011;66064;50.226;14.344;2022-12-29T13:03:52;13.60;;;12.30;;
77111;SDS011;66064;50.226;14.344;2022-12-29T13:09:02;5.43;;;4.55;;
77111;SDS011;66064;50.226;14.344;2022-12-29T13:12:04;7.40;;;5.10;;
77111;SDS011;66064;50.226;14.344;2022-12-29T13:14:52;10.52;;;6.35;;
77111;SDS011;66064;50.226;14.344;2022-12-29T13:19:49;4.85;;;4.28;;
77111;SDS011;66064;50.226;14.344;2022-12-29T13:22:39;7.90;;;7.30;;
77111;SDS011;66064;50.226;14.344;2022-12-29T13:25:19;5.97;;;4.20;;
77111;SDS011;66064;50.226;14.344;2022-12-29T13:30:19;7.13;;;5.10;;
77111;SDS011;66064;50.226;14.344;2022-12-29T13:41:15;4.97;;;4.47;;
77111;SDS011;66064;50.226;14.344;2022-12-29T13:43:43;5.57;;;5.15;;
77111;SDS011;66064;50.226;14.344;2022-12-29T13:46:15;4.25;;;3.95;;
77111;SDS011;66064;50.226;14.344;2022-12-29T13:49:04;7.35;;;5.32;;
77111;SDS011;66064;50.226;14.344;2022-12-29T13:51:37;5.43;;;4.72;;
77111;SDS011;66064;50.226;14.344;2022-12-29T13:54:37;8.60;;;7.75;;
77111;SDS011;66064;50.226;14.344;2022-12-29T13:59:57;6.97;;;6.18;;
77111;SDS011;66064;50.226;14.344;2022-12-29T14:02:32;6.50;;;5.90;;
77111;SDS011;66064;50.226;14.344;2022-12-29T14:07:57;5.85;;;5.25;;
77111;SDS011;66064;50.226;14.344;2022-12-29T14:15:42;16.58;;;14.07;;
77111;SDS011;66064;50.226;14.344;2022-12-29T14:20:39;5.75;;;4.43;;
77111;SDS011;66064;50.226;14.344;2022-12-29T14:23:16;32.22;;;18.92;;
77111;SDS011;66064;50.226;14.344;2022-12-29T14:25:56;18.20;;;12.73;;
77111;SDS011;66064;50.226;14.344;2022-12-29T14:28:32;28.42;;;16.67;;
77111;SDS011;66064;50.226;14.344;2022-12-29T14:31:00;19.25;;;11.77;;
77111;SDS011;66064;50.226;14.344;2022-12-29T14:36:56;16.25;;;8.98;;
77111;SDS011;66064;50.226;14.344;2022-12-29T14:39:29;14.02;;;10.00;;
77111;SDS011;66064;50.226;14.344;2022-12-29T14:44:34;10.35;;;8.18;;
77111;SDS011;66064;50.226;14.344;2022-12-29T14:49:56;9.52;;;7.70;;
77111;SDS011;66064;50.226;14.344;2022-12-29T14:52:41;17.27;;;10.32;;
77111;SDS011;66064;50.226;14.344;2022-12-29T14:57:43;14.20;;;10.55;;
77111;SDS011;66064;50.226;14.344;2022-12-29T15:00:22;12.05;;;10.32;;
77111;SDS011;66064;50.226;14.344;2022-12-29T15:05:40;15.88;;;10.88;;
77111;SDS011;66064;50.226;14.344;2022-12-29T15:08:10;18.88;;;15.20;;
77111;SDS011;66064;50.226;14.344;2022-12-29T15:10:45;15.95;;;10.98;;
77111;SDS011;66064;50.226;14.344;2022-12-29T15:13:21;21.83;;;13.73;;
77111;SDS011;66064;50.226;14.344;2022-12-29T15:15:50;20.08;;;11.20;;
77111;SDS011;66064;50.226;14.344;2022-12-29T15:18:22;24.02;;;14.18;;
77111;SDS011;66064;50.226;14.344;2022-12-29T15:20:51;17.17;;;11.82;;
77111;SDS011;66064;50.226;14.344;2022-12-29T15:23:20;48.72;;;23.50;;
77111;SDS011;66064;50.226;14.344;2022-12-29T15:25:51;29.80;;;15.50;;
77111;SDS011;66064;50.226;14.344;2022-12-29T15:28:20;19.98;;;11.73;;
77111;SDS011;66064;50.226;14.344;2022-12-29T15:31:03;11.27;;;9.13;;
77111;SDS011;66064;50.226;14.344;2022-12-29T15:33:31;13.18;;;10.20;;
77111;SDS011;66064;50.226;14.344;2022-12-29T15:36:05;21.88;;;19.58;;
77111;SDS011;66064;50.226;14.344;2022-12-29T15:38:38;12.32;;;9.98;;
77111;SDS011;66064;50.226;14.344;2022-12-29T15:41:05;10.23;;;9.23;;
77111;SDS011;66064;50.226;14.344;2022-12-29T15:43:46;10.68;;;9.55;;
77111;SDS011;66064;50.226;14.344;2022-12-29T15:46:20;9.35;;;8.40;;
77111;SDS011;66064;50.226;14.344;2022-12-29T15:48:47;13.50;;;12.20;;
77111;SDS011;66064;50.226;14.344;2022-12-29T15:51:25;14.02;;;12.55;;
77111;SDS011;66064;50.226;14.344;2022-12-29T15:53:56;10.43;;;9.35;;
77111;SDS011;66064;50.226;14.344;2022-12-29T15:56:23;10.55;;;8.73;;
77111;SDS011;66064;50.226;14.344;2022-12-29T15:58:50;14.15;;;10.07;;
77111;SDS011;66064;50.226;14.344;2022-12-29T16:04:06;12.85;;;10.00;;
77111;SDS011;66064;50.226;14.344;2022-12-29T16:06:37;26.35;;;17.65;;
77111;SDS011;66064;50.226;14.344;2022-12-29T16:09:05;24.88;;;14.52;;
77111;SDS011;66064;50.226;14.344;2022-12-29T16:11:34;23.08;;;15.15;;
77111;SDS011;66064;50.226;14.344;2022-12-29T16:14:07;18.75;;;16.35;;
77111;SDS011;66064;50.226;14.344;2022-12-29T16:16:39;26.75;;;15.35;;
77111;SDS011;66064;50.226;14.344;2022-12-29T16:19:14;29.73;;;17.45;;
77111;SDS011;66064;50.226;14.344;2022-12-29T16:21:41;40.70;;;24.45;;
77111;SDS011;66064;50.226;14.344;2022-12-29T16:24:11;53.65;;;24.85;;
77111;SDS011;66064;50.226;14.344;2022-12-29T16:26:44;46.47;;;20.15;;
77111;SDS011;66064;50.226;14.344;2022-12-29T16:29:13;32.65;;;16.00;;
77111;SDS011;66064;50.226;14.344;2022-12-29T16:31:55;64.18;;;26.85;;
77111;SDS011;66064;50.226;14.344;2022-12-29T16:34:29;46.63;;;20.75;;
77111;SDS011;66064;50.226;14.344;2022-12-29T16:37:01;55.67;;;25.25;;
77111;SDS011;66064;50.226;14.344;2022-12-29T16:41:55;38.65;;;18.85;;
77111;SDS011;66064;50.226;14.344;2022-12-29T16:44:25;62.33;;;25.80;;
77111;SDS011;66064;50.226;14.344;2022-12-29T16:49:22;31.15;;;17.55;;
77111;SDS011;66064;50.226;14.344;2022-12-29T16:51:49;23.92;;;13.93;;
77111;SDS011;66064;50.226;14.344;2022-12-29T16:54:21;18.42;;;11.88;;
77111;SDS011;66064;50.226;14.344;2022-12-29T16:56:50;13.32;;;10.25;;
77111;SDS011;66064;50.226;14.344;2022-12-29T17:02:14;17.98;;;11.40;;
77111;SDS011;66064;50.226;14.344;2022-12-29T17:04:42;25.35;;;13.57;;